Time;durP1;ratioP1;P1;durP2;ratioP2;P2;SDS_P1;SDS_P2;PMS_P1;PMS_P2;Temp;Humidity;BMP_temperature;BMP_pressure;BME280_temperature;BME280_humidity;BME280_pressure;Samples;Min_cycle;Max_cycle;Signal;HPM_P1;HPM_P2
2021/05/19 00:03:30;;;;;;;2.97;1.63;;;;;;;8.20;100.00;98964.00;10494037;28;20228;-75
2021/05/19 00:08:48;;;;;;;1.67;1.17;;;;;;;8.16;100.00;98965.94;10496606;28;20179;-75
2021/05/19 00:14:09;;;;;;;1.87;1.30;;;;;;;8.16;100.00;98966.75;10495556;28;20183;-73
2021/05/19 00:19:28;;;;;;;2.10;1.10;;;;;;;8.06;100.00;98980.38;10493963;28;20174;-74
2021/05/19 00:24:47;;;;;;;1.57;1.13;;;;;;;8.00;100.00;98976.41;10494769;28;20202;-75
2021/05/19 00:30:08;;;;;;;1.40;1.30;;;;;;;7.91;100.00;98976.00;10495395;28;20599;-73
2021/05/19 00:35:27;;;;;;;1.20;1.00;;;;;;;7.85;100.00;98983.00;10500238;28;20178;-75
2021/05/19 00:40:47;;;;;;;1.73;1.17;;;;;;;7.84;100.00;98989.63;10503198;28;20187;-74
2021/05/19 00:46:07;;;;;;;1.57;1.47;;;;;;;7.75;100.00;98991.97;10501471;28;20202;-74
2021/05/19 00:51:27;;;;;;;1.47;0.90;;;;;;;7.56;100.00;98984.00;10501627;28;20195;-73
2021/05/19 00:56:46;;;;;;;1.40;0.97;;;;;;;7.44;100.00;98984.31;10501614;28;20708;-74
2021/05/19 01:02:05;;;;;;;1.97;1.40;;;;;;;7.32;100.00;98984.63;10502428;28;20198;-73
2021/05/19 01:07:27;;;;;;;2.27;1.57;;;;;;;7.21;100.00;98991.97;10501242;28;20175;-73
2021/05/19 01:12:46;;;;;;;4.50;1.20;;;;;;;7.14;100.00;98994.66;10502320;28;20182;-74
2021/05/19 01:18:06;;;;;;;1.63;0.80;;;;;;;7.07;100.00;98982.06;10500860;28;20254;-77
2021/05/19 01:23:30;;;;;;;2.63;1.23;;;;;;;6.98;100.00;98989.81;10501609;28;20301;-76
2021/05/19 01:28:49;;;;;;;1.20;0.93;;;;;;;6.89;100.00;98995.59;10501022;28;20222;-75
2021/05/19 01:34:08;;;;;;;1.57;1.17;;;;;;;6.82;100.00;98986.53;10500041;28;20171;-75
2021/05/19 01:39:27;;;;;;;2.23;1.40;;;;;;;6.78;100.00;99002.13;10501070;28;20178;-74
2021/05/19 01:44:45;;;;;;;1.33;0.77;;;;;;;7.04;100.00;99002.78;10499284;28;20210;-77
2021/05/19 01:50:08;;;;;;;1.60;1.30;;;;;;;7.11;100.00;99006.34;10499311;28;20182;-73
2021/05/19 01:55:28;;;;;;;1.83;1.23;;;;;;;7.13;100.00;99003.25;10499235;28;20248;-77
2021/05/19 02:00:48;;;;;;;2.13;1.07;;;;;;;7.05;100.00;99003.53;10499185;28;20206;-75
2021/05/19 02:06:06;;;;;;;1.27;1.17;;;;;;;7.01;100.00;98998.03;10497821;28;20214;-76
2021/05/19 02:11:25;;;;;;;2.23;1.93;;;;;;;6.86;100.00;99009.25;10499688;28;20536;-76
2021/05/19 02:16:45;;;;;;;1.93;1.73;;;;;;;6.80;100.00;99002.53;10499420;28;20174;-75
2021/05/19 02:22:05;;;;;;;1.67;1.30;;;;;;;6.69;100.00;99001.66;10497841;28;20202;-75
2021/05/19 02:27:24;;;;;;;2.80;2.13;;;;;;;6.73;100.00;99005.19;10498941;28;20226;-75
2021/05/19 02:32:44;;;;;;;1.70;1.60;;;;;;;6.72;100.00;99003.63;10497716;28;20253;-74
2021/05/19 02:38:03;;;;;;;2.53;2.33;;;;;;;6.69;100.00;99009.84;10498940;28;20171;-77
2021/05/19 02:43:22;;;;;;;2.57;2.33;;;;;;;6.51;100.00;99014.34;10498248;28;20202;-77
2021/05/19 02:48:42;;;;;;;4.63;3.00;;;;;;;6.32;100.00;99006.31;10496151;28;20210;-74
2021/05/19 02:54:02;;;;;;;2.27;2.07;;;;;;;6.22;100.00;99017.13;10497765;28;20190;-74
2021/05/19 02:59:21;;;;;;;2.50;1.73;;;;;;;6.10;100.00;99009.97;10498150;28;20167;-74
2021/05/19 03:04:41;;;;;;;3.57;1.90;;;;;;;5.99;100.00;99011.75;10496248;28;20585;-77
2021/05/19 03:10:00;;;;;;;3.17;1.53;;;;;;;5.94;100.00;99022.22;10497959;28;20170;-76
2021/05/19 03:15:20;;;;;;;1.37;1.27;;;;;;;5.91;100.00;99022.97;10496632;28;20190;-74
2021/05/19 03:20:39;;;;;;;1.97;1.53;;;;;;;5.98;100.00;99029.28;10495458;28;20533;-75
2021/05/19 03:25:58;;;;;;;3.67;2.67;;;;;;;5.83;100.00;99033.00;10495748;28;20199;-74
2021/05/19 03:31:18;;;;;;;2.77;2.27;;;;;;;5.71;100.00;99035.94;10496210;28;20607;-75
2021/05/19 03:36:36;;;;;;;2.00;1.60;;;;;;;5.62;100.00;99043.59;10495975;28;20174;-74
2021/05/19 03:41:55;;;;;;;3.37;2.80;;;;;;;5.98;100.00;99053.88;10496898;28;20198;-74
2021/05/19 03:47:14;;;;;;;6.40;1.77;;;;;;;5.88;100.00;99057.25;10495968;28;20214;-74
2021/05/19 03:52:33;;;;;;;2.30;2.10;;;;;;;5.64;100.00;99060.38;10496794;28;20202;-76
2021/05/19 03:57:53;;;;;;;4.60;2.23;;;;;;;5.61;100.00;99063.84;10496898;28;20637;-74
2021/05/19 04:03:12;;;;;;;3.57;2.23;;;;;;;5.58;100.00;99070.00;10495201;28;20210;-74
2021/05/19 04:08:39;;;;;;;3.93;2.07;;;;;;;5.94;100.00;99076.81;10500913;28;20175;-75
2021/05/19 04:13:58;;;;;;;2.30;2.20;;;;;;;6.06;100.00;99088.31;10504477;28;20178;-77
2021/05/19 04:19:17;;;;;;;4.00;2.20;;;;;;;6.00;100.00;99084.31;10502870;28;20561;-77
2021/05/19 04:24:36;;;;;;;3.03;2.83;;;;;;;6.24;100.00;99083.88;10503641;28;20213;-76
2021/05/19 04:29:55;;;;;;;2.67;1.97;;;;;;;6.53;100.00;99096.75;10503058;28;20214;-77
2021/05/19 04:35:14;;;;;;;5.80;3.27;;;;;;;6.63;100.00;99104.25;10502327;28;20629;-77
2021/05/19 04:40:33;;;;;;;2.47;2.27;;;;;;;6.64;100.00;99112.09;10502358;28;20175;-77
2021/05/19 04:45:53;;;;;;;2.90;2.10;;;;;;;6.62;100.00;99116.38;10501585;28;20312;-77
2021/05/19 04:51:12;;;;;;;5.30;3.90;;;;;;;6.86;100.00;99130.31;10501599;28;20195;-77
2021/05/19 04:56:31;;;;;;;4.20;2.63;;;;;;;7.05;100.00;99135.63;10502955;28;20653;-75
2021/05/19 05:01:50;;;;;;;4.93;4.40;;;;;;;7.34;100.00;99137.47;10502533;28;20701;-76
2021/05/19 05:07:09;;;;;;;4.90;2.77;;;;;;;7.47;100.00;99141.53;10501548;28;20568;-77
2021/05/19 05:12:28;;;;;;;6.00;3.47;;;;;;;7.58;100.00;99143.19;10501902;28;20652;-75
2021/05/19 05:17:47;;;;;;;2.60;2.40;;;;;;;7.67;100.00;99153.81;10500340;28;20178;-76
2021/05/19 05:23:06;;;;;;;4.67;2.87;;;;;;;7.73;100.00;99152.28;10500523;28;20700;-77
2021/05/19 05:28:26;;;;;;;2.63;2.43;;;;;;;8.03;100.00;99149.03;10500047;28;20587;-77
2021/05/19 05:33:46;;;;;;;5.83;5.07;;;;;;;8.40;100.00;99146.16;10500372;28;20191;-78
2021/05/19 05:39:05;;;;;;;4.93;3.27;;;;;;;8.40;100.00;99149.69;10500104;28;20179;-78
2021/05/19 05:44:26;;;;;;;4.23;3.83;;;;;;;8.63;100.00;99152.94;10500399;28;20206;-77
2021/05/19 05:49:45;;;;;;;8.57;4.00;;;;;;;8.86;100.00;99154.22;10499439;28;20222;-74
2021/05/19 05:55:04;;;;;;;4.40;2.73;;;;;;;8.95;100.00;99154.66;10500345;28;20183;-75
2021/05/19 06:00:23;;;;;;;5.10;4.00;;;;;;;9.16;100.00;99164.91;10500208;28;20183;-74
2021/05/19 06:05:42;;;;;;;3.13;2.83;;;;;;;9.45;100.00;99161.81;10498226;28;20207;-74
2021/05/19 06:11:05;;;;;;;10.60;4.07;;;;;;;10.12;100.00;99162.69;10512996;28;20174;-74
2021/05/19 06:16:24;;;;;;;7.13;3.63;;;;;;;10.60;100.00;99170.84;10499384;28;20257;-74
2021/05/19 06:21:43;;;;;;;5.45;4.20;;;;;;;11.14;100.00;99175.78;10498119;28;20224;-75
2021/05/19 06:27:03;;;;;;;5.47;3.50;;;;;;;11.16;100.00;99173.38;10498835;28;20218;-75
2021/05/19 06:32:22;;;;;;;3.93;3.23;;;;;;;11.38;100.00;99170.13;10497044;28;20186;-74
2021/05/19 06:37:41;;;;;;;4.80;4.03;;;;;;;11.55;100.00;99179.53;10498714;28;20174;-74
2021/05/19 06:43:01;;;;;;;4.30;3.83;;;;;;;11.28;100.00;99179.22;10497153;28;20669;-74
2021/05/19 06:48:21;;;;;;;5.80;4.77;;;;;;;11.64;100.00;99171.56;10495939;28;20214;-74
2021/05/19 06:53:40;;;;;;;6.37;3.87;;;;;;;11.72;100.00;99179.41;10498213;28;20838;-77
2021/05/19 06:59:00;;;;;;;3.73;3.40;;;;;;;12.01;100.00;99170.50;10497264;28;20692;-76
2021/05/19 07:04:19;;;;;;;6.13;3.20;;;;;;;11.81;100.00;99170.66;10495260;28;20214;-75
2021/05/19 07:09:38;;;;;;;3.73;3.40;;;;;;;11.91;100.00;99175.31;10496316;28;20536;-77
2021/05/19 07:15:01;;;;;;;3.83;2.90;;;;;;;12.40;100.00;99184.75;10497634;28;20182;-76
2021/05/19 07:20:20;;;;;;;6.47;2.73;;;;;;;12.85;100.00;99169.66;10496413;28;20202;-78
2021/05/19 07:25:41;;;;;;;8.60;4.20;;;;;;;12.50;100.00;99183.84;10496787;28;20574;-76
2021/05/19 07:31:00;;;;;;;5.30;3.80;;;;;;;12.98;100.00;99170.75;10496228;28;20554;-74
2021/05/19 07:36:21;;;;;;;7.13;3.73;;;;;;;13.82;100.00;99170.34;10496124;28;20183;-75
2021/05/19 07:41:40;;;;;;;3.73;2.80;;;;;;;14.01;100.00;99175.19;10500078;28;20538;-78
2021/05/19 07:47:00;;;;;;;18.57;4.40;;;;;;;14.00;96.62;99168.88;10505507;28;20538;-77
2021/05/19 07:52:20;;;;;;;6.70;4.17;;;;;;;14.02;96.29;99165.69;10505117;28;20229;-76
2021/05/19 08:03:03;;;;;;;11.43;4.00;;;;;;;13.41;97.28;99174.53;10502783;28;20289;-77
2021/05/19 08:08:22;;;;;;;6.00;4.07;;;;;;;13.45;99.60;99172.50;10504671;28;20201;-74
2021/05/19 08:13:42;;;;;;;4.73;4.07;;;;;;;13.55;100.00;99175.09;10504388;28;20612;-76
2021/05/19 08:19:02;;;;;;;5.67;3.40;;;;;;;14.16;100.00;99166.25;10503047;28;20179;-75
2021/05/19 08:24:21;;;;;;;7.53;4.27;;;;;;;14.84;94.54;99181.25;10502643;28;20214;-75
2021/05/19 08:29:40;;;;;;;6.30;4.40;;;;;;;15.39;87.36;99155.19;10502162;28;20228;-77
2021/05/19 08:35:00;;;;;;;7.40;4.30;;;;;;;15.94;83.09;99157.84;10501377;28;20183;-76
2021/05/19 08:40:19;;;;;;;7.93;5.03;;;;;;;15.43;88.12;99158.63;10502214;28;20166;-76
2021/05/19 08:45:40;;;;;;;7.10;5.13;;;;;;;14.87;92.79;99166.53;10501721;28;20242;-75
2021/05/19 08:50:59;;;;;;;3.63;3.33;;;;;;;14.92;91.12;99155.75;10501638;28;20194;-77
2021/05/19 08:56:20;;;;;;;7.87;4.80;;;;;;;15.10;94.33;99149.88;10502368;28;20183;-77
2021/05/19 09:01:46;;;;;;;5.87;4.63;;;;;;;14.98;95.66;99154.06;10502654;28;20174;-77
2021/05/19 09:07:08;;;;;;;7.10;4.40;;;;;;;15.22;91.16;99152.78;10501087;28;20190;-75
2021/05/19 09:12:33;;;;;;;4.90;3.33;;;;;;;15.03;91.71;99142.47;10502157;28;20183;-75
2021/05/19 09:17:56;;;;;;;9.27;4.93;;;;;;;16.06;90.25;99143.31;10499726;28;20179;-74
2021/05/19 09:23:19;;;;;;;12.10;4.87;;;;;;;15.93;85.44;99138.88;10500650;28;20206;-74
2021/05/19 09:28:38;;;;;;;6.90;5.27;;;;;;;15.15;93.84;99139.03;10500914;28;20219;-73
2021/05/19 09:33:59;;;;;;;5.60;4.90;;;;;;;14.93;96.53;99142.69;10500108;28;20178;-74
2021/05/19 09:39:18;;;;;;;6.97;5.27;;;;;;;15.17;89.98;99139.41;10501075;28;20183;-74
2021/05/19 09:44:37;;;;;;;9.77;5.20;;;;;;;15.04;96.81;99130.19;10499360;28;20578;-76
2021/05/19 09:49:56;;;;;;;8.23;5.70;;;;;;;15.19;95.34;99139.75;10498466;28;20194;-78
2021/05/19 09:55:16;;;;;;;7.27;5.10;;;;;;;15.63;91.78;99128.13;10499583;28;20269;-75
2021/05/19 10:00:36;;;;;;;5.53;3.70;;;;;;;13.83;100.00;99156.09;10500362;28;20621;-78
2021/05/19 10:11:19;;;;;;;3.40;2.60;;;;;;;15.57;79.75;99143.69;10499092;28;20179;-74
2021/05/19 10:16:45;;;;;;;2.10;1.90;;;;;;;14.80;67.78;99145.31;10499559;28;20170;-74
2021/05/19 10:22:09;;;;;;;3.27;2.77;;;;;;;13.80;73.02;99156.16;10496988;28;20187;-74
2021/05/19 10:27:56;;;;;;;4.97;3.00;;;;;;;13.74;77.88;99149.53;10498903;28;20223;-74
2021/05/19 10:33:37;;;;;;;3.43;3.00;;;;;;;14.45;77.56;99145.22;10497793;28;20182;-73
2021/05/19 10:39:11;;;;;;;2.80;2.60;;;;;;;15.69;73.37;99135.47;10496500;28;20186;-74
2021/05/19 10:44:31;;;;;;;4.33;3.83;;;;;;;16.38;69.79;99132.97;10497174;28;20198;-74
2021/05/19 11:00:52;;;;;;;4.63;3.50;;;;;;;16.94;64.74;99115.53;10498062;28;20187;-75
2021/05/19 11:06:12;;;;;;;7.97;4.83;;;;;;;17.78;64.97;99093.50;10496119;28;20210;-74
2021/05/19 11:11:32;;;;;;;4.17;3.80;;;;;;;17.56;60.22;99100.22;10497630;28;20621;-74
2021/05/19 11:17:08;;;;;;;3.63;3.33;;;;;;;18.37;60.76;99088.75;10497246;28;20656;-74
2021/05/19 11:22:27;;;;;;;4.23;2.60;;;;;;;16.87;58.82;99090.75;10497503;28;20211;-74
2021/05/19 11:27:56;;;;;;;3.03;2.80;;;;;;;17.43;60.16;99091.06;10496133;28;20349;-74
2021/05/19 11:33:20;;;;;;;3.03;2.73;;;;;;;17.69;54.06;99079.47;10495074;28;20591;-74
2021/05/19 11:38:41;;;;;;;4.77;2.37;;;;;;;17.79;55.75;99070.81;10496368;28;20186;-74
2021/05/19 11:44:00;;;;;;;3.77;3.30;;;;;;;19.55;52.06;99061.97;10495037;28;20198;-74
2021/05/19 11:49:19;;;;;;;2.50;2.30;;;;;;;20.47;49.72;99070.88;10495831;28;20194;-74
2021/05/19 11:54:42;;;;;;;3.63;3.20;;;;;;;20.13;47.94;99063.53;10496788;28;20692;-74
2021/05/19 12:00:04;;;;;;;2.90;2.50;;;;;;;18.41;50.12;99057.97;10496708;28;20175;-74
2021/05/19 12:05:23;;;;;;;2.80;2.50;;;;;;;17.42;55.97;99056.91;10493983;28;20598;-75
2021/05/19 12:10:45;;;;;;;2.33;2.13;;;;;;;18.92;51.04;99055.25;10492299;28;20218;-73
2021/05/19 12:16:06;;;;;;;2.40;2.20;;;;;;;18.54;48.06;99049.09;10484698;28;20574;-73
2021/05/19 12:21:26;;;;;;;2.07;1.40;;;;;;;18.32;47.12;99046.75;10471739;28;20202;-74
2021/05/19 12:26:46;;;;;;;3.43;2.30;;;;;;;19.66;48.66;99037.19;10459005;28;20230;-75
2021/05/19 12:32:21;;;;;;;6.03;3.33;;;;;;;20.70;41.13;99043.03;10461074;28;20171;-81
2021/05/19 12:37:56;;;;;;;2.07;1.87;;;;;;;21.12;40.78;99047.50;10461069;28;20642;-82
2021/05/19 12:43:27;;;;;;;2.20;1.47;;;;;;;20.16;41.59;99057.03;10461763;28;20715;-80
2021/05/19 12:48:48;;;;;;;1.70;1.40;;;;;;;19.62;44.91;99052.53;10460443;28;20608;-76
2021/05/19 12:54:06;;;;;;;4.10;2.23;;;;;;;18.55;45.03;99045.09;10460413;28;20645;-80
2021/05/19 12:59:25;;;;;;;1.67;1.57;;;;;;;18.31;47.49;99051.53;10461323;28;20214;-78
2021/05/19 13:04:49;;;;;;;5.60;1.50;;;;;;;20.09;46.58;99045.38;10458511;28;20211;-79
2021/05/19 13:10:25;;;;;;;1.60;1.03;;;;;;;19.88;38.76;99051.81;10459875;28;20175;-85
2021/05/19 13:16:02;;;;;;;1.07;0.70;;;;;;;19.62;44.13;99055.31;10459616;28;20176;-80
2021/05/19 13:27:10;;;;;;;1.10;0.97;;;;;;;20.60;45.92;99063.09;10458733;28;20686;-78
2021/05/19 13:32:38;;;;;;;1.70;1.20;;;;;;;18.03;46.34;99063.63;10457741;28;20258;-79
2021/05/19 13:37:58;;;;;;;1.97;1.23;;;;;;;17.34;50.65;99077.03;10459788;28;20176;-75
2021/05/19 13:43:17;;;;;;;1.20;0.70;;;;;;;16.84;49.99;99077.72;10459379;28;20211;-75
2021/05/19 13:48:37;;;;;;;0.90;0.60;;;;;;;16.45;49.86;99080.03;10458151;28;20290;-79
2021/05/19 13:53:56;;;;;;;1.00;0.80;;;;;;;17.34;54.05;99071.47;10458203;28;20258;-78
2021/05/19 13:59:15;;;;;;;0.90;0.60;;;;;;;18.44;44.43;99066.97;10457911;28;20540;-79
2021/05/19 14:04:35;;;;;;;1.03;0.67;;;;;;;18.88;44.67;99060.19;10457269;28;20674;-78
2021/05/19 14:09:54;;;;;;;2.20;1.07;;;;;;;19.54;40.08;99057.59;10458570;28;20175;-80
2021/05/19 14:31:44;;;;;;;0.90;0.50;;;;;;;19.33;39.85;99054.88;10457759;28;20167;-76
2021/05/19 15:04:57;;;;;;;7.10;1.03;;;;;;;19.31;42.28;99062.91;10454040;28;20694;-74
2021/05/19 15:10:18;;;;;;;1.10;0.70;;;;;;;19.89;41.33;99053.38;10456111;28;20176;-79
2021/05/19 15:15:37;;;;;;;1.43;1.00;;;;;;;18.59;43.05;99056.09;10455697;28;20251;-79
2021/05/19 15:20:56;;;;;;;1.20;0.80;;;;;;;19.37;44.04;99056.28;10483505;28;20241;-79
2021/05/19 15:26:15;;;;;;;1.10;1.00;;;;;;;19.35;43.30;99058.75;10495965;28;20265;-79
2021/05/19 15:31:36;;;;;;;1.23;1.00;;;;;;;19.62;42.25;99058.13;10496723;28;20174;-76
2021/05/19 15:36:55;;;;;;;4.63;0.90;;;;;;;19.90;41.64;99060.53;10494547;28;20571;-80
2021/05/19 15:42:14;;;;;;;1.00;0.70;;;;;;;20.06;41.90;99060.28;10495807;28;20206;-80
2021/05/19 15:47:33;;;;;;;1.30;0.63;;;;;;;19.77;40.42;99047.91;10494654;28;20202;-80
2021/05/19 15:52:53;;;;;;;1.83;0.97;;;;;;;19.48;41.85;99044.72;10495237;28;20186;-78
2021/05/19 15:58:12;;;;;;;1.00;0.90;;;;;;;19.25;42.47;99048.03;10496707;28;20624;-77
2021/05/19 16:03:38;;;;;;;1.03;0.80;;;;;;;20.00;42.07;99036.22;10497891;28;20202;-81
2021/05/19 16:08:57;;;;;;;2.00;1.17;;;;;;;20.15;41.50;99030.31;10503776;28;20178;-80
2021/05/19 16:14:16;;;;;;;1.30;0.90;;;;;;;19.62;40.94;99033.75;10503627;28;20183;-79
2021/05/19 16:19:35;;;;;;;1.10;0.90;;;;;;;20.60;41.56;99035.13;10503061;28;20206;-78
2021/05/19 16:24:54;;;;;;;4.20;1.40;;;;;;;21.13;39.24;99021.06;10503711;28;20206;-81
2021/05/19 16:30:45;;;;;;;3.20;0.80;;;;;;;20.86;38.74;99023.16;10502201;28;20218;-78
2021/05/19 16:36:04;;;;;;;1.10;0.80;;;;;;;20.66;39.68;99022.88;10502221;28;20174;-77
2021/05/19 16:41:24;;;;;;;1.20;0.83;;;;;;;19.58;42.03;99024.78;10502456;28;20257;-78
2021/05/19 16:46:43;;;;;;;1.20;0.90;;;;;;;18.70;43.33;99023.81;10502480;28;20214;-81
2021/05/19 16:52:05;;;;;;;1.00;0.63;;;;;;;18.48;44.82;99023.06;10500948;28;20187;-76
2021/05/19 16:57:23;;;;;;;1.10;0.90;;;;;;;19.57;43.36;99011.25;10502883;28;20179;-78
2021/05/19 17:08:20;;;;;;;2.50;1.10;;;;;;;19.36;41.80;99014.91;10502370;28;20174;-79
2021/05/19 17:13:39;;;;;;;1.20;0.90;;;;;;;18.46;43.66;99019.16;10501448;28;20653;-77
2021/05/19 17:18:59;;;;;;;1.63;0.70;;;;;;;17.84;46.72;99020.13;10500873;28;20642;-76
2021/05/19 17:24:18;;;;;;;1.60;1.03;;;;;;;17.62;47.56;99021.28;10500644;28;20288;-77
2021/05/19 17:29:37;;;;;;;1.10;0.83;;;;;;;17.24;50.49;99033.66;10501193;28;20222;-77
2021/05/19 17:34:57;;;;;;;1.50;0.80;;;;;;;17.55;48.63;99031.88;10500115;28;20186;-75
2021/05/19 17:40:16;;;;;;;1.13;0.87;;;;;;;17.41;47.00;99044.25;10500155;28;20250;-77
2021/05/19 17:45:37;;;;;;;1.00;0.67;;;;;;;17.43;48.00;99052.13;10500407;28;20285;-79
2021/05/19 17:50:56;;;;;;;2.40;0.70;;;;;;;16.67;51.33;99056.00;10499483;28;20186;-76
2021/05/19 17:56:15;;;;;;;1.27;1.00;;;;;;;16.28;51.89;99077.69;10500643;28;20199;-80
2021/05/19 18:01:39;;;;;;;0.90;0.70;;;;;;;15.95;56.18;99073.41;10500281;28;20171;-77
2021/05/19 18:07:02;;;;;;;1.00;0.80;;;;;;;15.74;59.21;99085.03;10494062;28;20215;-80
2021/05/19 18:12:22;;;;;;;0.90;0.50;;;;;;;15.43;59.23;99089.34;10481536;28;20630;-78
2021/05/19 18:17:41;;;;;;;3.37;0.90;;;;;;;15.23;59.94;99094.16;10473800;28;20190;-82
2021/05/19 18:23:01;;;;;;;1.53;0.93;;;;;;;15.16;60.47;99097.06;10457527;28;20618;-76
2021/05/19 18:28:20;;;;;;;3.00;1.20;;;;;;;14.91;61.57;99100.78;10497528;28;20705;-76
2021/05/19 18:33:43;;;;;;;0.97;0.50;;;;;;;14.58;62.50;99110.16;10497418;28;20178;-77
2021/05/19 18:39:03;;;;;;;1.53;1.43;;;;;;;14.45;62.43;99125.84;10498249;28;20249;-79
2021/05/19 18:44:23;;;;;;;1.00;0.70;;;;;;;14.18;62.95;99130.66;10469735;28;20211;-79
2021/05/19 18:49:44;;;;;;;1.10;0.60;;;;;;;14.22;62.92;99136.91;10455412;28;20180;-83
2021/05/19 18:55:03;;;;;;;0.97;0.80;;;;;;;14.15;64.61;99142.56;10456656;28;20622;-79
2021/05/19 19:00:24;;;;;;;0.97;0.70;;;;;;;14.18;64.18;99146.47;10456411;28;20175;-84
2021/05/19 19:05:44;;;;;;;1.00;0.67;;;;;;;14.07;64.54;99152.16;10453643;28;20616;-82
2021/05/19 19:11:04;;;;;;;1.13;0.80;;;;;;;13.54;69.00;99160.50;10456420;28;20187;-78
2021/05/19 19:16:23;;;;;;;7.87;2.63;;;;;;;13.45;69.96;99169.72;10455784;28;20633;-80
2021/05/19 19:21:42;;;;;;;4.27;2.13;;;;;;;13.44;70.59;99174.47;10453519;28;20538;-77
2021/05/19 19:27:01;;;;;;;1.90;1.00;;;;;;;13.55;69.10;99181.44;10454687;28;20679;-77
2021/05/19 19:32:22;;;;;;;3.90;0.83;;;;;;;13.43;69.71;99189.50;10455740;28;20176;-77
2021/05/19 19:37:41;;;;;;;1.10;0.83;;;;;;;13.13;72.06;99194.22;10458610;28;20175;-78
2021/05/19 19:43:02;;;;;;;1.10;0.90;;;;;;;13.07;72.09;99193.88;10463876;28;20223;-80
2021/05/19 19:48:26;;;;;;;3.50;1.20;;;;;;;12.91;72.92;99218.53;10475142;28;20535;-79
2021/05/19 19:53:45;;;;;;;1.77;1.30;;;;;;;12.66;74.06;99219.97;10462590;28;20163;-77
2021/05/19 19:59:05;;;;;;;4.30;1.63;;;;;;;12.50;74.88;99228.00;10463399;28;20622;-79
2021/05/19 20:04:26;;;;;;;1.00;0.70;;;;;;;12.52;76.01;99222.06;10461434;28;20219;-77
2021/05/19 20:09:45;;;;;;;1.90;0.80;;;;;;;12.55;76.37;99229.53;10462832;28;20171;-77
2021/05/19 20:15:05;;;;;;;0.93;0.60;;;;;;;12.31;79.01;99225.81;10462524;28;20175;-77
2021/05/19 20:20:24;;;;;;;1.77;0.90;;;;;;;12.25;79.86;99240.44;10461482;28;20258;-77
2021/05/19 20:25:42;;;;;;;1.00;0.73;;;;;;;12.09;80.76;99234.66;10461822;28;20753;-77
2021/05/19 20:31:01;;;;;;;1.10;0.70;;;;;;;12.04;80.55;99233.09;10462547;28;20552;-76
2021/05/19 20:36:21;;;;;;;1.30;1.00;;;;;;;11.96;80.55;99236.31;10459962;28;20203;-75
2021/05/19 20:41:40;;;;;;;1.10;0.70;;;;;;;11.77;82.84;99247.88;10462409;28;20298;-78
2021/05/19 20:47:01;;;;;;;1.13;1.03;;;;;;;11.76;83.41;99249.03;10461414;28;20231;-78
2021/05/19 20:52:20;;;;;;;1.00;0.60;;;;;;;11.86;82.51;99250.97;10458419;28;20646;-80
2021/05/19 20:57:39;;;;;;;1.10;0.63;;;;;;;11.78;83.86;99254.94;10464022;28;20241;-76
2021/05/19 21:03:01;;;;;;;1.33;1.23;;;;;;;11.72;85.61;99250.25;10494821;28;20198;-79
2021/05/19 21:08:20;;;;;;;1.10;0.80;;;;;;;11.67;86.53;99256.97;10502482;28;20171;-77
2021/05/19 21:13:39;;;;;;;6.50;1.10;;;;;;;11.62;86.74;99264.91;10502284;28;20616;-79
2021/05/19 21:18:58;;;;;;;0.90;0.67;;;;;;;11.54;87.65;99264.13;10500641;28;20174;-79
2021/05/19 21:24:18;;;;;;;5.43;1.40;;;;;;;11.58;86.57;99272.38;10501489;28;20202;-77
2021/05/19 21:29:37;;;;;;;3.47;1.10;;;;;;;11.59;87.46;99266.47;10501129;28;20222;-77
2021/05/19 21:34:56;;;;;;;1.40;0.90;;;;;;;11.62;88.78;99273.94;10500080;28;20179;-78
2021/05/19 21:40:15;;;;;;;0.93;0.83;;;;;;;11.64;85.86;99288.09;10501106;28;20175;-79
2021/05/19 21:45:34;;;;;;;1.67;0.60;;;;;;;11.56;85.29;99299.53;10500619;28;20211;-83
2021/05/19 21:50:54;;;;;;;0.90;0.50;;;;;;;11.54;82.98;99290.91;10499550;28;20257;-82
2021/05/19 21:56:13;;;;;;;2.03;0.90;;;;;;;11.34;84.05;99287.81;10500608;28;20198;-81
2021/05/19 22:01:32;;;;;;;1.10;0.80;;;;;;;11.10;86.71;99292.63;10500427;28;20258;-78
2021/05/19 22:06:52;;;;;;;1.10;0.80;;;;;;;10.91;88.96;99291.06;10498468;28;20289;-76
2021/05/19 22:12:11;;;;;;;1.50;0.80;;;;;;;10.64;91.17;99302.91;10499962;28;20170;-77
2021/05/19 22:17:30;;;;;;;1.00;0.73;;;;;;;10.52;92.22;99292.31;10497587;28;20174;-77
2021/05/19 22:28:28;;;;;;;0.90;0.60;;;;;;;10.32;94.45;99305.66;10498921;28;20224;-79
2021/05/19 22:33:47;;;;;;;0.90;0.60;;;;;;;10.24;96.48;99297.00;10497965;28;20596;-77
2021/05/19 22:39:08;;;;;;;0.80;0.40;;;;;;;10.07;98.44;99298.53;10498959;28;20178;-77
2021/05/19 22:44:27;;;;;;;0.87;0.60;;;;;;;10.00;100.00;99298.53;10498415;28;20202;-77
2021/05/19 22:49:45;;;;;;;0.90;0.80;;;;;;;9.91;100.00;99311.84;10497013;28;20175;-77
2021/05/19 22:55:05;;;;;;;0.90;0.60;;;;;;;9.76;100.00;99310.22;10498391;28;20253;-76
2021/05/19 23:00:25;;;;;;;1.20;0.90;;;;;;;9.74;100.00;99315.31;10498283;28;20625;-76
2021/05/19 23:05:44;;;;;;;0.90;0.60;;;;;;;9.65;100.00;99328.63;10496477;28;20210;-76
2021/05/19 23:11:05;;;;;;;1.20;0.70;;;;;;;9.60;100.00;99330.97;10497618;28;20245;-76
2021/05/19 23:16:24;;;;;;;1.00;0.67;;;;;;;9.64;100.00;99329.03;10497802;28;20166;-75
2021/05/19 23:21:43;;;;;;;1.03;0.93;;;;;;;9.56;100.00;99332.91;10496624;28;20178;-80
2021/05/19 23:27:03;;;;;;;1.03;0.80;;;;;;;9.62;100.00;99342.34;10496861;28;20230;-79
2021/05/19 23:32:22;;;;;;;1.83;0.60;;;;;;;9.55;100.00;99345.06;10497330;28;20625;-78
2021/05/19 23:37:42;;;;;;;1.40;1.10;;;;;;;9.36;100.00;99350.88;10497434;28;20163;-81
2021/05/19 23:43:01;;;;;;;1.10;0.80;;;;;;;9.29;100.00;99342.59;10497231;28;20202;-80
2021/05/19 23:48:20;;;;;;;0.83;0.53;;;;;;;9.05;100.00;99345.97;10495938;28;20178;-79
2021/05/19 23:53:39;;;;;;;0.90;0.60;;;;;;;9.02;100.00;99345.94;10497160;28;20178;-80
2021/05/19 23:58:58;;;;;;;2.37;1.23;;;;;;;8.71;100.00;99345.75;10497026;28;20194;-80
